createdAt,value
2019-01-19T00:01:15.751Z,89.20
2019-01-19T00:04:59.700Z,89.20
2019-01-19T00:08:16.164Z,89.20
2019-01-19T00:12:07.345Z,90.00
2019-01-19T00:15:21.559Z,90.00
2019-01-19T00:18:56.265Z,89.40
2019-01-19T00:22:47.195Z,89.40
2019-01-19T00:26:29.034Z,89.50
2019-01-19T00:30:08.520Z,89.70
2019-01-19T00:33:56.119Z,90.00
2019-01-19T00:37:27.803Z,90.20
2019-01-19T00:41:02.264Z,90.30
2019-01-19T00:44:44.176Z,90.20
2019-01-19T00:48:14.823Z,90.00
2019-01-19T00:52:02.983Z,90.00
2019-01-19T00:55:42.701Z,89.90
2019-01-19T00:58:51.442Z,89.60
2019-01-19T01:02:33.539Z,89.60
2019-01-19T01:06:17.060Z,89.70
2019-01-19T01:10:01.681Z,90.00
2019-01-19T01:13:18.524Z,90.10
2019-01-19T01:17:09.403Z,90.10
2019-01-19T01:20:51.816Z,90.10
2019-01-19T01:24:43.181Z,90.10
2019-01-19T01:28:25.279Z,90.10
2019-01-19T01:31:46.748Z,90.10
2019-01-19T01:35:05.856Z,90.10
2019-01-19T01:38:53.064Z,90.10
2019-01-19T01:42:37.904Z,90.10
2019-01-19T01:46:17.476Z,90.00
2019-01-19T01:49:34.892Z,90.40
2019-01-19T01:53:19.444Z,90.10
2019-01-19T01:56:24.588Z,90.10
2019-01-19T01:59:39.851Z,90.10
2019-01-19T02:03:19.088Z,90.10
2019-01-19T02:07:09.421Z,90.00
2019-01-19T02:10:54.262Z,90.00
2019-01-19T02:14:40.520Z,90.00
2019-01-19T02:18:41.787Z,90.00
2019-01-19T02:22:13.725Z,90.00
2019-01-19T02:25:43.349Z,90.10
2019-01-19T02:29:18.211Z,89.90
2019-01-19T02:32:53.659Z,89.80
2019-01-19T02:36:20.922Z,90.00
2019-01-19T02:39:57.736Z,89.90
2019-01-19T02:43:13.544Z,90.00
2019-01-19T02:46:54.163Z,90.00
2019-01-19T02:50:38.483Z,90.00
2019-01-19T02:54:29.944Z,90.00
2019-01-19T02:58:14.707Z,90.00
2019-01-19T03:02:00.912Z,90.00
2019-01-19T03:05:37.391Z,90.00
2019-01-19T03:09:16.814Z,89.90
2019-01-19T03:12:38.824Z,89.80
2019-01-19T03:15:56.770Z,89.80
2019-01-19T03:20:13.163Z,89.50
2019-01-19T03:23:49.787Z,89.40
2019-01-19T03:27:45.488Z,89.40
2019-01-19T03:31:17.679Z,89.40
2019-01-19T03:34:55.805Z,89.30
2019-01-19T03:38:29.440Z,89.20
2019-01-19T03:42:01.968Z,89.20
2019-01-19T03:45:31.403Z,89.30
2019-01-19T03:49:13.282Z,89.30
2019-01-19T03:52:44.484Z,89.20
2019-01-19T03:56:33.262Z,89.30
2019-01-19T03:59:55.111Z,89.40
2019-01-19T04:03:44.673Z,89.70
2019-01-19T04:07:02.836Z,89.80
2019-01-19T04:10:24.087Z,89.90
2019-01-19T04:13:46.855Z,90.00
2019-01-19T04:17:28.396Z,90.10
2019-01-19T04:21:10.592Z,90.10
2019-01-19T04:24:29.216Z,90.00
2019-01-19T04:27:34.328Z,90.00
2019-01-19T04:30:39.580Z,90.10
2019-01-19T04:33:44.726Z,90.10
2019-01-19T04:36:50.029Z,90.10
2019-01-19T04:39:55.152Z,90.20
2019-01-19T04:43:00.285Z,90.10
2019-01-19T04:46:05.410Z,90.10
2019-01-19T04:49:10.911Z,90.10
2019-01-19T04:52:15.880Z,90.00
2019-01-19T04:55:21.037Z,90.00
2019-01-19T04:58:26.146Z,90.00
2019-01-19T05:01:31.263Z,90.00
2019-01-19T05:04:36.387Z,90.00
2019-01-19T05:07:41.498Z,90.40
2019-01-19T05:10:46.647Z,90.00
2019-01-19T05:13:51.690Z,90.10
2019-01-19T05:16:56.827Z,90.00
2019-01-19T05:20:01.869Z,90.00
2019-01-19T05:23:07.064Z,90.00
2019-01-19T05:26:12.057Z,89.90
2019-01-19T05:29:17.198Z,89.70
2019-01-19T05:32:22.494Z,89.80
2019-01-19T05:35:27.627Z,89.80
2019-01-19T05:38:32.657Z,89.80
2019-01-19T05:41:37.704Z,89.90
2019-01-19T05:44:42.805Z,90.00
2019-01-19T05:47:47.766Z,90.00
2019-01-19T05:50:53.369Z,90.10
2019-01-19T05:53:58.680Z,90.40
2019-01-19T05:57:03.831Z,90.00
2019-01-19T06:00:17.576Z,90.00
2019-01-19T06:03:22.754Z,90.00
2019-01-19T06:06:28.229Z,90.00
2019-01-19T06:09:33.289Z,90.20
2019-01-19T06:12:38.694Z,90.00
2019-01-19T06:15:43.963Z,90.00
2019-01-19T06:18:49.700Z,90.00
2019-01-19T06:21:59.895Z,90.40
2019-01-19T06:25:05.790Z,90.00
2019-01-19T06:28:10.976Z,90.10
2019-01-19T06:31:16.022Z,90.10
2019-01-19T06:34:21.061Z,90.20
2019-01-19T06:37:26.171Z,90.20
2019-01-19T06:40:31.301Z,90.10
2019-01-19T06:43:36.352Z,90.50
2019-01-19T06:46:41.338Z,90.20
2019-01-19T06:49:46.447Z,90.10
2019-01-19T06:52:51.628Z,90.10
2019-01-19T06:55:56.672Z,90.10
2019-01-19T06:59:01.657Z,90.10
2019-01-19T07:02:07.345Z,90.20
2019-01-19T07:05:13.434Z,90.20
2019-01-19T07:08:20.317Z,90.30
2019-01-19T07:11:25.544Z,90.40
2019-01-19T07:14:30.664Z,90.40
2019-01-19T07:17:35.817Z,90.50
2019-01-19T07:20:41.947Z,90.50
2019-01-19T07:23:47.007Z,90.50
2019-01-19T07:26:52.477Z,90.40
2019-01-19T07:29:57.515Z,90.40
2019-01-19T07:33:02.586Z,90.30
2019-01-19T07:36:07.767Z,90.40
2019-01-19T07:39:12.822Z,90.30
2019-01-19T07:42:18.092Z,90.30
2019-01-19T07:45:23.063Z,90.30
2019-01-19T07:48:28.547Z,90.40
2019-01-19T07:51:33.695Z,90.40
2019-01-19T07:54:38.679Z,90.30
2019-01-19T07:57:43.807Z,90.40
2019-01-19T08:00:49.022Z,90.40
2019-01-19T08:03:54.176Z,90.40
2019-01-19T08:06:59.301Z,90.40
2019-01-19T08:10:04.672Z,90.40
2019-01-19T08:13:09.710Z,90.40
2019-01-19T08:16:14.760Z,90.40
2019-01-19T08:19:19.736Z,90.50
2019-01-19T08:22:24.848Z,90.40
2019-01-19T08:25:29.960Z,90.20
2019-01-19T08:28:35.103Z,90.10
2019-01-19T08:31:40.212Z,90.00
2019-01-19T08:34:46.603Z,90.40
2019-01-19T08:37:52.475Z,90.00
2019-01-19T08:40:57.583Z,89.80
2019-01-19T08:44:04.536Z,89.70
2019-01-19T08:47:09.652Z,89.70
2019-01-19T08:50:14.835Z,89.50
2019-01-19T08:53:19.920Z,88.80
2019-01-19T08:56:25.026Z,88.80
2019-01-19T08:59:30.079Z,88.70
2019-01-19T09:02:35.066Z,88.30
2019-01-19T09:05:40.436Z,88.40
2019-01-19T09:08:45.878Z,88.50
2019-01-19T09:11:51.130Z,88.40
2019-01-19T09:14:56.393Z,88.00
2019-01-19T09:18:02.624Z,87.90
2019-01-19T09:21:08.371Z,87.70
2019-01-19T09:24:18.553Z,87.30
2019-01-19T09:27:23.665Z,86.80
2019-01-19T09:30:28.756Z,86.70
2019-01-19T09:33:33.859Z,86.60
2019-01-19T09:36:38.951Z,86.80
2019-01-19T09:39:43.995Z,86.40
2019-01-19T09:42:49.097Z,85.90
2019-01-19T09:45:54.219Z,85.90
2019-01-19T09:48:59.340Z,84.80
2019-01-19T09:52:04.451Z,84.40
2019-01-19T09:55:09.772Z,84.90
2019-01-19T09:58:14.808Z,84.00
2019-01-19T10:01:19.858Z,83.00
2019-01-19T10:04:25.086Z,82.70
2019-01-19T10:07:30.195Z,82.20
2019-01-19T10:10:35.146Z,81.80
2019-01-19T10:13:40.343Z,81.30
2019-01-19T10:16:45.445Z,80.00
2019-01-19T10:19:50.599Z,80.00
2019-01-19T10:22:55.753Z,79.10
2019-01-19T10:26:00.856Z,77.60
2019-01-19T10:29:06.038Z,77.00
2019-01-19T10:32:11.130Z,77.00
2019-01-19T10:35:16.375Z,76.20
2019-01-19T10:38:21.468Z,75.90
2019-01-19T10:41:26.516Z,74.80
2019-01-19T10:44:31.595Z,74.60
2019-01-19T10:47:36.699Z,74.10
2019-01-19T10:50:41.814Z,73.80
2019-01-19T10:53:46.847Z,73.10
2019-01-19T10:56:51.900Z,71.90
2019-01-19T10:59:56.861Z,71.50
2019-01-19T11:03:01.989Z,71.40
2019-01-19T11:06:07.100Z,71.10
2019-01-19T11:09:12.227Z,70.50
2019-01-19T11:12:17.331Z,69.60
2019-01-19T11:15:22.498Z,69.40
2019-01-19T11:18:27.535Z,68.90
2019-01-19T11:21:32.663Z,68.50
2019-01-19T11:24:37.747Z,68.40
2019-01-19T11:27:42.863Z,68.00
2019-01-19T11:30:47.983Z,67.00
2019-01-19T11:33:53.193Z,66.70
2019-01-19T11:36:59.085Z,66.70
2019-01-19T11:40:04.780Z,66.60
2019-01-19T11:43:10.948Z,66.40
2019-01-19T11:46:16.055Z,65.30
2019-01-19T11:49:21.104Z,65.10
2019-01-19T11:52:26.139Z,64.50
2019-01-19T11:55:31.258Z,64.00
2019-01-19T11:58:36.315Z,62.80
2019-01-19T12:01:41.348Z,62.20
2019-01-19T12:04:46.547Z,61.70
2019-01-19T12:07:51.787Z,61.30
2019-01-19T12:10:56.981Z,60.70
2019-01-19T12:14:02.104Z,60.50
2019-01-19T12:17:07.273Z,59.50
2019-01-19T12:20:18.683Z,58.70
2019-01-19T12:23:23.733Z,58.70
2019-01-19T12:26:28.838Z,58.40
2019-01-19T12:29:33.901Z,57.80
2019-01-19T12:32:39.103Z,57.80
2019-01-19T12:35:44.215Z,57.50
2019-01-19T12:38:49.340Z,57.00
2019-01-19T12:41:54.530Z,55.70
2019-01-19T12:44:59.672Z,55.20
2019-01-19T12:48:04.974Z,54.40
2019-01-19T12:51:11.751Z,54.70
2019-01-19T12:54:16.871Z,55.00
2019-01-19T12:57:21.971Z,55.20
2019-01-19T13:00:27.263Z,54.30
2019-01-19T13:03:32.375Z,53.20
2019-01-19T13:07:09.928Z,53.50
2019-01-19T13:10:27.199Z,53.90
2019-01-19T13:13:43.507Z,53.60
2019-01-19T13:17:05.643Z,53.10
2019-01-19T13:20:24.131Z,53.60
2019-01-19T13:24:02.647Z,53.10
2019-01-19T13:27:24.899Z,52.80
2019-01-19T13:31:11.285Z,52.80
2019-01-19T13:34:55.978Z,53.10
2019-01-19T13:38:32.280Z,52.70
2019-01-19T13:42:09.527Z,52.30
2019-01-19T13:45:56.095Z,52.20
2019-01-19T13:49:40.887Z,50.30
2019-01-19T13:53:09.690Z,47.10
2019-01-19T13:56:42.931Z,46.40
2019-01-19T14:00:01.969Z,45.80
2019-01-19T14:03:17.168Z,45.10
2019-01-19T14:07:27.432Z,44.80
2019-01-19T14:10:40.607Z,43.50
2019-01-19T14:14:35.853Z,42.80
2019-01-19T14:18:07.310Z,42.80
2019-01-19T14:21:23.748Z,42.90
2019-01-19T14:25:21.755Z,42.90
2019-01-19T14:29:05.651Z,43.40
2019-01-19T14:32:31.218Z,43.60
2019-01-19T14:36:09.792Z,43.20
2019-01-19T14:40:01.276Z,43.40
2019-01-19T14:43:43.859Z,43.80
2019-01-19T14:47:27.331Z,44.60
2019-01-19T14:51:10.478Z,44.30
2019-01-19T14:54:51.490Z,44.80
2019-01-19T14:58:47.012Z,45.10
2019-01-19T15:02:42.460Z,45.80
2019-01-19T15:06:24.167Z,46.40
2019-01-19T15:10:03.850Z,46.80
2019-01-19T15:13:46.162Z,47.50
2019-01-19T15:17:13.984Z,48.40
2019-01-19T15:20:32.298Z,49.10
2019-01-19T15:24:14.155Z,49.50
2019-01-19T15:27:48.823Z,50.00
2019-01-19T15:31:43.560Z,50.20
2019-01-19T15:35:14.691Z,50.60
2019-01-19T15:39:11.035Z,50.90
2019-01-19T15:43:01.023Z,51.40
2019-01-19T15:46:43.675Z,51.80
2019-01-19T15:50:28.031Z,52.10
2019-01-19T15:53:52.889Z,52.50
2019-01-19T15:57:35.503Z,53.00
2019-01-19T16:01:26.186Z,53.20
2019-01-19T16:05:08.238Z,53.50
2019-01-19T16:08:50.599Z,53.80
2019-01-19T16:12:17.511Z,54.30
2019-01-19T16:16:05.358Z,54.40
2019-01-19T16:19:44.451Z,54.50
2019-01-19T16:23:36.556Z,54.80
2019-01-19T16:27:05.653Z,54.90
2019-01-19T16:31:15.921Z,55.00
2019-01-19T16:34:48.345Z,55.10
2019-01-19T16:38:52.696Z,55.10
2019-01-19T16:42:36.875Z,55.20
2019-01-19T16:46:11.003Z,55.30
2019-01-19T16:49:43.959Z,55.50
2019-01-19T16:53:27.550Z,55.70
2019-01-19T16:57:18.055Z,55.90
2019-01-19T17:01:14.052Z,56.00
2019-01-19T17:04:44.084Z,56.10
2019-01-19T17:08:15.736Z,56.20
2019-01-19T17:11:39.066Z,56.10
2019-01-19T17:15:05.000Z,56.20
2019-01-19T17:18:35.795Z,56.10
2019-01-19T17:22:32.810Z,56.30
2019-01-19T17:26:03.270Z,56.40
2019-01-19T17:30:01.070Z,56.50
2019-01-19T17:33:30.435Z,56.60
2019-01-19T17:36:50.476Z,56.60
2019-01-19T17:40:32.485Z,56.70
2019-01-19T17:44:23.671Z,56.80
2019-01-19T17:47:57.757Z,57.10
2019-01-19T17:51:29.120Z,57.50
2019-01-19T17:55:23.084Z,57.70
2019-01-19T17:59:12.920Z,58.00
2019-01-19T18:03:01.432Z,58.20
2019-01-19T18:06:50.955Z,58.40
2019-01-19T18:10:43.306Z,58.70
2019-01-19T18:14:11.254Z,58.90
2019-01-19T18:17:57.675Z,59.10
2019-01-19T18:21:50.143Z,59.90
2019-01-19T18:25:25.178Z,59.60
2019-01-19T18:29:11.863Z,59.60
2019-01-19T18:32:49.659Z,59.70
2019-01-19T18:36:29.965Z,59.90
2019-01-19T18:40:03.551Z,60.20
2019-01-19T18:43:23.937Z,60.40
2019-01-19T18:46:53.171Z,60.70
2019-01-19T18:50:40.995Z,60.90
2019-01-19T18:54:11.911Z,61.00
2019-01-19T18:57:41.777Z,61.20
2019-01-19T19:01:26.100Z,61.40
2019-01-19T19:05:18.206Z,61.60
2019-01-19T19:09:05.151Z,61.80
2019-01-19T19:12:38.395Z,62.10
2019-01-19T19:16:13.915Z,62.20
2019-01-19T19:19:44.976Z,62.50
2019-01-19T19:23:05.871Z,62.60
2019-01-19T19:27:19.320Z,62.90
2019-01-19T19:31:11.665Z,63.10
2019-01-19T19:34:49.919Z,63.30
2019-01-19T19:38:38.063Z,63.60
2019-01-19T19:42:24.041Z,63.90
2019-01-19T19:45:48.171Z,64.00
2019-01-19T19:49:34.159Z,64.30
2019-01-19T19:52:39.240Z,65.40
2019-01-19T19:55:42.879Z,64.80
2019-01-19T19:58:48.043Z,64.80
2019-01-19T20:01:53.335Z,65.00
2019-01-19T20:04:58.470Z,65.20
2019-01-19T20:08:03.572Z,65.30
2019-01-19T20:11:08.682Z,65.40
2019-01-19T20:14:13.809Z,65.50
2019-01-19T20:17:19.072Z,65.70
2019-01-19T20:20:24.183Z,65.80
2019-01-19T20:23:29.235Z,65.90
2019-01-19T20:26:34.399Z,66.80
2019-01-19T20:29:39.450Z,66.20
2019-01-19T20:32:44.665Z,66.30
2019-01-19T20:35:49.715Z,66.40
2019-01-19T20:38:54.746Z,66.50
2019-01-19T20:41:59.811Z,66.40
2019-01-19T20:45:06.692Z,66.40
2019-01-19T20:48:11.908Z,66.70
2019-01-19T20:51:17.026Z,66.70
2019-01-19T20:54:22.152Z,66.90
2019-01-19T20:57:27.190Z,67.00
2019-01-19T21:00:32.375Z,67.20
2019-01-19T21:03:37.472Z,67.40
2019-01-19T21:06:42.524Z,67.40
2019-01-19T21:09:47.740Z,67.50
2019-01-19T21:12:52.860Z,67.70
2019-01-19T21:15:57.899Z,67.90
2019-01-19T21:19:03.220Z,68.10
2019-01-19T21:22:08.443Z,69.00
2019-01-19T21:25:13.623Z,68.30
2019-01-19T21:28:18.683Z,68.30
2019-01-19T21:31:23.736Z,68.50
2019-01-19T21:34:28.850Z,68.80
2019-01-19T21:37:33.893Z,68.80
2019-01-19T21:40:39.366Z,69.00
2019-01-19T21:43:44.417Z,69.10
2019-01-19T21:46:49.462Z,69.20
2019-01-19T21:49:54.575Z,69.30
2019-01-19T21:52:59.560Z,69.40
2019-01-19T21:56:04.663Z,69.50
2019-01-19T21:59:09.795Z,69.60
2019-01-19T22:02:14.747Z,69.70
2019-01-19T22:05:21.069Z,69.80
2019-01-19T22:08:26.107Z,69.80
2019-01-19T22:11:31.215Z,69.90
2019-01-19T22:14:36.336Z,69.90
2019-01-19T22:17:41.468Z,70.00
2019-01-19T22:20:46.700Z,70.20
2019-01-19T22:23:51.982Z,70.20
2019-01-19T22:26:57.718Z,70.30
2019-01-19T22:30:03.084Z,70.30
2019-01-19T22:33:09.548Z,70.50
2019-01-19T22:36:14.719Z,70.60
2019-01-19T22:39:19.830Z,70.70
2019-01-19T22:42:25.978Z,70.70
2019-01-19T22:45:31.235Z,70.90
2019-01-19T22:48:36.285Z,71.10
2019-01-19T22:51:41.851Z,71.00
2019-01-19T22:54:47.252Z,71.90
2019-01-19T22:57:52.746Z,71.30
2019-01-19T23:01:30.607Z,71.40
2019-01-19T23:04:36.403Z,71.50
2019-01-19T23:07:41.360Z,71.70
2019-01-19T23:10:46.723Z,71.90
2019-01-19T23:13:52.198Z,72.10
2019-01-19T23:16:57.596Z,72.20
2019-01-19T23:20:02.643Z,72.30
2019-01-19T23:23:07.757Z,72.50
2019-01-19T23:26:13.115Z,72.40
2019-01-19T23:29:18.624Z,72.50
2019-01-19T23:32:23.905Z,72.50
2019-01-19T23:35:29.363Z,72.60
2019-01-19T23:38:34.659Z,72.80
2019-01-19T23:41:39.776Z,73.00
2019-01-19T23:44:45.095Z,73.10
2019-01-19T23:47:50.109Z,73.10
2019-01-19T23:50:55.372Z,73.10
2019-01-19T23:54:00.624Z,73.20
2019-01-19T23:57:05.735Z,73.20
